createdAt,value
2022-11-19T00:00:48.714Z,98132.72
2022-11-19T00:03:15.207Z,98135.94
2022-11-19T00:05:42.000Z,98141.34
2022-11-19T00:08:08.322Z,98138.75
2022-11-19T00:10:34.680Z,98143.63
2022-11-19T00:13:01.233Z,98145.19
2022-11-19T00:15:27.599Z,98165.66
2022-11-19T00:17:53.934Z,98159.84
2022-11-19T00:20:20.305Z,98172.00
2022-11-19T00:22:47.630Z,98174.97
2022-11-19T00:25:13.992Z,98177.16
2022-11-19T00:27:40.556Z,98167.56
2022-11-19T00:30:20.020Z,98172.75
2022-11-19T00:32:52.939Z,98173.34
2022-11-19T00:35:19.345Z,98183.31
2022-11-19T00:37:45.728Z,98191.97
2022-11-19T00:40:12.130Z,98193.56
2022-11-19T00:42:39.538Z,98192.47
2022-11-19T00:45:05.954Z,98192.72
2022-11-19T00:47:32.401Z,98188.84
2022-11-19T00:49:58.803Z,98202.56
2022-11-19T00:52:25.210Z,98210.31
2022-11-19T00:54:51.627Z,98203.50
2022-11-19T00:57:18.006Z,98200.69
2022-11-19T00:59:44.571Z,98211.59
2022-11-19T01:02:11.217Z,98215.13
2022-11-19T01:04:37.765Z,98220.06
2022-11-19T01:07:04.148Z,98218.31
2022-11-19T01:09:30.608Z,98223.78
2022-11-19T01:11:57.046Z,98228.97
2022-11-19T01:14:23.386Z,98232.50
2022-11-19T01:16:49.816Z,98229.09
2022-11-19T01:19:16.378Z,98225.34
2022-11-19T01:21:43.065Z,98229.78
2022-11-19T01:24:09.474Z,98244.38
2022-11-19T01:26:35.868Z,98251.19
2022-11-19T01:29:02.328Z,98256.31
2022-11-19T01:31:28.674Z,98266.88
2022-11-19T01:33:55.047Z,98277.69
2022-11-19T01:36:21.496Z,98267.28
2022-11-19T01:38:47.885Z,98275.94
2022-11-19T01:41:14.310Z,98268.88
2022-11-19T01:43:40.678Z,98287.16
2022-11-19T01:46:07.078Z,98283.06
2022-11-19T01:48:33.524Z,98284.78
2022-11-19T01:51:00.341Z,98281.72
2022-11-19T01:53:26.737Z,98280.84
2022-11-19T01:55:53.344Z,98289.31
2022-11-19T01:58:19.844Z,98298.72
2022-11-19T02:00:46.215Z,98285.19
2022-11-19T02:03:12.627Z,98280.25
2022-11-19T02:05:39.072Z,98292.34
2022-11-19T02:08:05.655Z,98284.34
2022-11-19T02:10:32.115Z,98291.78
2022-11-19T02:12:58.696Z,98300.25
2022-11-19T02:15:25.188Z,98303.19
2022-11-19T02:17:51.640Z,98302.41
2022-11-19T02:20:18.081Z,98305.34
2022-11-19T02:22:44.723Z,98318.22
2022-11-19T02:25:11.125Z,98314.28
2022-11-19T02:27:37.571Z,98318.47
2022-11-19T02:30:04.088Z,98312.06
2022-11-19T02:32:30.564Z,98319.38
2022-11-19T02:34:56.947Z,98315.75
2022-11-19T02:37:23.418Z,98321.03
2022-11-19T02:39:50.030Z,98325.75
2022-11-19T02:42:16.654Z,98328.94
2022-11-19T02:44:43.098Z,98329.66
2022-11-19T02:47:09.942Z,98333.75
2022-11-19T02:49:36.415Z,98333.41
2022-11-19T02:52:02.936Z,98340.16
2022-11-19T02:54:29.290Z,98344.78
2022-11-19T02:56:55.968Z,98362.97
2022-11-19T02:59:22.360Z,98346.00
2022-11-19T03:01:48.965Z,98353.78
2022-11-19T03:04:15.379Z,98352.88
2022-11-19T03:06:41.850Z,98354.97
2022-11-19T03:09:08.580Z,98350.19
2022-11-19T03:11:34.970Z,98359.41
2022-11-19T03:14:01.372Z,98365.25
2022-11-19T03:16:27.835Z,98368.84
2022-11-19T03:18:54.216Z,98368.47
2022-11-19T03:21:20.635Z,98369.66
2022-11-19T03:23:47.096Z,98372.38
2022-11-19T03:26:13.495Z,98381.91
2022-11-19T03:28:39.908Z,98395.91
2022-11-19T03:31:06.441Z,98396.47
2022-11-19T03:33:32.850Z,98404.63
2022-11-19T03:35:59.269Z,98418.06
2022-11-19T03:38:25.634Z,98422.31
2022-11-19T03:40:52.101Z,98422.75
2022-11-19T03:43:18.456Z,98411.13
2022-11-19T03:45:44.883Z,98413.31
2022-11-19T03:48:11.221Z,98424.16
2022-11-19T03:50:37.670Z,98430.66
2022-11-19T03:53:04.729Z,98426.84
2022-11-19T03:55:31.267Z,98426.75
2022-11-19T03:57:57.668Z,98432.47
2022-11-19T04:00:24.062Z,98434.69
2022-11-19T04:02:50.493Z,98435.16
2022-11-19T04:05:16.969Z,98429.94
2022-11-19T04:07:43.783Z,98436.03
2022-11-19T04:10:10.203Z,98441.28
2022-11-19T04:12:36.625Z,98442.63
2022-11-19T04:15:02.958Z,98448.88
2022-11-19T04:17:29.284Z,98442.91
2022-11-19T04:19:55.692Z,98444.22
2022-11-19T04:22:22.057Z,98457.47
2022-11-19T04:24:48.415Z,98457.34
2022-11-19T04:27:14.799Z,98458.28
2022-11-19T04:29:41.196Z,98475.59
2022-11-19T04:32:07.569Z,98473.78
2022-11-19T04:34:34.061Z,98478.84
2022-11-19T04:37:00.494Z,98484.69
2022-11-19T04:39:26.790Z,98489.06
2022-11-19T04:41:53.268Z,98504.81
2022-11-19T04:44:19.724Z,98506.22
2022-11-19T04:46:46.183Z,98506.03
2022-11-19T04:49:12.704Z,98505.63
2022-11-19T04:51:39.094Z,98504.03
2022-11-19T04:54:05.666Z,98508.47
2022-11-19T04:56:32.075Z,98514.66
2022-11-19T04:58:58.385Z,98519.44
2022-11-19T05:01:24.967Z,98521.97
2022-11-19T05:03:51.477Z,98517.47
2022-11-19T05:06:17.861Z,98523.47
2022-11-19T05:08:44.208Z,98522.19
2022-11-19T05:11:10.768Z,98524.00
2022-11-19T05:13:37.128Z,98516.72
2022-11-19T05:16:03.489Z,98511.06
2022-11-19T05:18:29.840Z,98516.81
2022-11-19T05:20:56.180Z,98527.56
2022-11-19T05:23:22.558Z,98527.47
2022-11-19T05:25:48.977Z,98519.47
2022-11-19T05:28:15.602Z,98538.66
2022-11-19T05:30:41.965Z,98539.88
2022-11-19T05:33:08.330Z,98534.53
2022-11-19T05:35:34.774Z,98541.78
2022-11-19T05:38:01.350Z,98548.34
2022-11-19T05:40:27.707Z,98536.75
2022-11-19T05:42:54.119Z,98546.16
2022-11-19T05:45:20.551Z,98552.44
2022-11-19T05:47:48.757Z,98552.28
2022-11-19T05:50:15.436Z,98553.72
2022-11-19T05:52:41.813Z,98548.59
2022-11-19T05:55:08.215Z,98561.94
2022-11-19T05:57:34.814Z,98557.50
2022-11-19T06:00:01.209Z,98566.66
2022-11-19T06:02:28.002Z,98562.97
2022-11-19T06:04:54.443Z,98558.53
2022-11-19T06:07:20.828Z,98566.16
2022-11-19T06:09:47.244Z,98565.22
2022-11-19T06:12:15.982Z,98563.94
2022-11-19T06:14:42.353Z,98581.94
2022-11-19T06:17:08.733Z,98589.81
2022-11-19T06:19:35.839Z,98584.25
2022-11-19T06:22:02.298Z,98589.88
2022-11-19T06:24:28.647Z,98593.56
2022-11-19T06:26:54.972Z,98595.44
2022-11-19T06:29:21.767Z,98596.59
2022-11-19T06:31:48.490Z,98610.19
2022-11-19T06:34:14.883Z,98607.75
2022-11-19T06:36:45.126Z,98593.88
2022-11-19T06:39:15.605Z,98607.53
2022-11-19T06:41:42.005Z,98615.50
2022-11-19T06:44:08.548Z,98620.91
2022-11-19T06:46:34.927Z,98623.44
2022-11-19T06:49:01.277Z,98605.22
2022-11-19T06:51:27.654Z,98615.00
2022-11-19T06:53:54.030Z,98624.03
2022-11-19T06:56:20.471Z,98618.06
2022-11-19T06:58:46.818Z,98616.16
2022-11-19T07:01:13.299Z,98626.19
2022-11-19T07:03:39.714Z,98636.19
2022-11-19T07:06:06.132Z,98647.16
2022-11-19T07:08:32.588Z,98646.47
2022-11-19T07:10:58.978Z,98639.66
2022-11-19T07:13:25.363Z,98645.81
2022-11-19T07:15:51.854Z,98648.16
2022-11-19T07:18:18.731Z,98662.94
2022-11-19T07:20:45.116Z,98665.69
2022-11-19T07:23:11.759Z,98655.53
2022-11-19T07:25:38.345Z,98670.38
2022-11-19T07:28:04.732Z,98672.09
2022-11-19T07:30:31.148Z,98677.78
2022-11-19T07:32:57.574Z,98685.00
2022-11-19T07:35:23.969Z,98684.63
2022-11-19T07:37:50.351Z,98684.88
2022-11-19T07:40:16.750Z,98680.69
2022-11-19T07:42:43.116Z,98672.28
2022-11-19T07:45:09.949Z,98672.09
2022-11-19T07:47:36.436Z,98686.00
2022-11-19T07:50:02.794Z,98684.66
2022-11-19T07:52:29.178Z,98688.84
2022-11-19T07:54:55.525Z,98685.94
2022-11-19T07:57:25.876Z,98698.38
2022-11-19T07:59:56.142Z,98703.53
2022-11-19T08:02:22.512Z,98694.69
2022-11-19T08:04:48.892Z,98690.91
2022-11-19T08:07:15.552Z,98683.69
2022-11-19T08:09:42.073Z,98703.78
2022-11-19T08:12:08.624Z,98694.22
2022-11-19T08:14:35.246Z,98707.00
2022-11-19T08:17:01.596Z,98711.66
2022-11-19T08:19:27.983Z,98719.09
2022-11-19T08:21:55.696Z,98715.91
2022-11-19T08:24:22.542Z,98701.34
2022-11-19T08:26:49.174Z,98702.53
2022-11-19T08:29:16.684Z,98703.91
2022-11-19T08:31:43.195Z,98711.25
2022-11-19T08:34:09.636Z,98725.56
2022-11-19T08:36:36.229Z,98728.03
2022-11-19T08:39:02.627Z,98727.69
2022-11-19T08:41:29.231Z,98722.94
2022-11-19T08:43:55.884Z,98718.34
2022-11-19T08:46:22.275Z,98715.47
2022-11-19T08:48:48.919Z,98712.84
2022-11-19T08:51:15.388Z,98717.84
2022-11-19T08:53:41.767Z,98710.41
2022-11-19T08:56:08.178Z,98718.53
2022-11-19T08:58:34.708Z,98711.94
2022-11-19T09:01:01.131Z,98719.66
2022-11-19T09:03:27.537Z,98730.53
2022-11-19T09:05:54.176Z,98736.59
2022-11-19T09:08:20.512Z,98740.22
2022-11-19T09:10:46.852Z,98763.44
2022-11-19T09:13:13.210Z,98754.25
2022-11-19T09:15:39.610Z,98758.78
2022-11-19T09:18:06.135Z,98765.13
2022-11-19T09:20:32.699Z,98773.41
2022-11-19T09:22:59.208Z,98765.38
2022-11-19T09:25:25.564Z,98773.78
2022-11-19T09:27:52.034Z,98772.41
2022-11-19T09:30:18.518Z,98764.28
2022-11-19T09:32:44.986Z,98772.56
2022-11-19T09:35:11.496Z,98768.78
2022-11-19T09:37:37.887Z,98754.81
2022-11-19T09:40:04.283Z,98748.94
2022-11-19T09:42:30.637Z,98745.44
2022-11-19T09:44:57.109Z,98736.97
2022-11-19T09:47:23.462Z,98748.38
2022-11-19T09:49:50.074Z,98743.66
2022-11-19T09:52:16.476Z,98740.28
2022-11-19T09:54:42.851Z,98752.72
2022-11-19T09:57:10.306Z,98752.63
2022-11-19T09:59:36.726Z,98743.84
2022-11-19T10:02:03.320Z,98752.34
2022-11-19T10:04:30.147Z,98747.81
2022-11-19T10:06:56.753Z,98741.25
2022-11-19T10:09:23.211Z,98745.59
2022-11-19T10:11:49.785Z,98742.31
2022-11-19T10:14:16.135Z,98746.53
2022-11-19T10:16:44.642Z,98752.34
2022-11-19T10:19:11.095Z,98748.88
2022-11-19T10:21:37.537Z,98753.03
2022-11-19T10:24:03.976Z,98754.63
2022-11-19T10:26:30.383Z,98743.47
2022-11-19T10:28:57.070Z,98747.84
2022-11-19T10:31:23.411Z,98743.47
2022-11-19T10:33:49.904Z,98746.97
2022-11-19T10:36:16.501Z,98741.81
2022-11-19T10:38:45.016Z,98738.75
2022-11-19T10:41:13.869Z,98755.75
2022-11-19T10:43:40.800Z,98752.34
2022-11-19T10:46:07.439Z,98747.88
2022-11-19T10:48:33.875Z,98741.84
2022-11-19T10:51:00.423Z,98730.19
2022-11-19T10:53:26.842Z,98730.50
2022-11-19T10:55:55.004Z,98723.69
2022-11-19T10:58:21.559Z,98727.31
2022-11-19T11:00:47.995Z,98724.94
2022-11-19T11:03:15.021Z,98723.78
2022-11-19T11:05:41.676Z,98716.69
2022-11-19T11:08:08.771Z,98728.34
2022-11-19T11:10:35.256Z,98730.09
2022-11-19T11:13:02.100Z,98723.50
2022-11-19T11:15:28.482Z,98707.97
2022-11-19T11:17:54.850Z,98710.00
2022-11-19T11:20:21.406Z,98707.97
2022-11-19T11:22:47.856Z,98705.97
2022-11-19T11:25:14.411Z,98700.25
2022-11-19T11:27:40.799Z,98692.25
2022-11-19T11:30:07.637Z,98701.91
2022-11-19T11:32:34.175Z,98705.66
2022-11-19T11:35:05.418Z,98697.66
2022-11-19T11:37:34.008Z,98709.19
2022-11-19T11:40:00.368Z,98711.28
2022-11-19T11:42:26.665Z,98709.22
2022-11-19T11:44:53.094Z,98718.19
2022-11-19T11:47:19.536Z,98718.75
2022-11-19T11:49:45.966Z,98707.53
2022-11-19T11:52:12.392Z,98717.94
2022-11-19T11:54:38.822Z,98716.31
2022-11-19T11:57:05.333Z,98716.59
2022-11-19T11:59:31.731Z,98717.53
2022-11-19T12:01:58.090Z,98720.34
2022-11-19T12:04:24.452Z,98718.16
2022-11-19T12:06:51.040Z,98711.13
2022-11-19T12:09:17.841Z,98697.75
2022-11-19T12:11:44.489Z,98694.88
2022-11-19T12:14:11.449Z,98706.38
2022-11-19T12:16:37.919Z,98697.56
2022-11-19T12:19:04.295Z,98697.13
2022-11-19T12:21:30.992Z,98692.56
2022-11-19T12:23:57.456Z,98688.41
2022-11-19T12:26:23.802Z,98679.44
2022-11-19T12:28:50.481Z,98689.91
2022-11-19T12:31:16.836Z,98684.41
2022-11-19T12:33:43.560Z,98683.66
2022-11-19T12:36:10.041Z,98682.16
2022-11-19T12:38:36.404Z,98685.34
2022-11-19T12:41:02.830Z,98681.56
2022-11-19T12:43:29.631Z,98679.81
2022-11-19T12:45:56.487Z,98678.94
2022-11-19T12:48:22.872Z,98681.22
2022-11-19T12:50:49.305Z,98683.16
2022-11-19T12:53:16.707Z,98681.81
2022-11-19T12:55:43.297Z,98675.09
2022-11-19T12:58:09.715Z,98677.00
2022-11-19T13:00:40.810Z,98677.69
2022-11-19T13:03:07.634Z,98670.16
2022-11-19T13:05:34.323Z,98669.84
2022-11-19T13:08:01.257Z,98676.66
2022-11-19T13:10:27.777Z,98686.22
2022-11-19T13:12:54.133Z,98683.19
2022-11-19T13:15:20.919Z,98690.31
2022-11-19T13:17:47.288Z,98688.09
2022-11-19T13:20:14.032Z,98690.31
2022-11-19T13:22:40.434Z,98681.34
2022-11-19T13:25:06.877Z,98681.03
2022-11-19T13:27:33.299Z,98678.69
2022-11-19T13:29:59.728Z,98684.66
2022-11-19T13:32:26.294Z,98687.09
2022-11-19T13:34:52.817Z,98683.47
2022-11-19T13:37:19.400Z,98675.16
2022-11-19T13:39:45.862Z,98679.38
2022-11-19T13:42:12.265Z,98694.31
2022-11-19T13:44:38.695Z,98705.91
2022-11-19T13:47:05.167Z,98698.66
2022-11-19T13:49:31.529Z,98709.91
2022-11-19T13:51:58.011Z,98701.72
2022-11-19T13:54:24.502Z,98698.44
2022-11-19T13:56:50.955Z,98701.09
2022-11-19T13:59:17.704Z,98697.84
2022-11-19T14:01:44.404Z,98698.53
2022-11-19T14:04:11.044Z,98685.00
2022-11-19T14:06:39.769Z,98683.59
2022-11-19T14:09:06.150Z,98679.50
2022-11-19T14:11:32.483Z,98691.16
2022-11-19T14:13:58.868Z,98690.91
2022-11-19T14:16:25.247Z,98675.16
2022-11-19T14:18:54.647Z,98679.34
2022-11-19T14:21:21.782Z,98682.94
2022-11-19T14:23:48.178Z,98675.91
2022-11-19T14:26:14.777Z,98672.88
2022-11-19T14:28:41.409Z,98671.88
2022-11-19T14:31:07.822Z,98675.19
2022-11-19T14:33:34.231Z,98669.47
2022-11-19T14:36:00.723Z,98673.56
2022-11-19T14:38:27.304Z,98674.75
2022-11-19T14:40:56.067Z,98679.53
2022-11-19T14:43:22.870Z,98681.63
2022-11-19T14:45:49.210Z,98684.22
2022-11-19T14:48:15.580Z,98673.31
2022-11-19T14:50:41.973Z,98678.94
2022-11-19T14:53:08.407Z,98687.34
2022-11-19T14:55:35.031Z,98690.66
2022-11-19T14:58:01.519Z,98698.66
2022-11-19T15:00:27.901Z,98698.81
2022-11-19T15:02:54.396Z,98689.53
2022-11-19T15:05:20.845Z,98706.00
2022-11-19T15:07:51.424Z,98701.56
2022-11-19T15:10:22.348Z,98699.16
2022-11-19T15:12:48.978Z,98698.50
2022-11-19T15:15:15.347Z,98705.03
2022-11-19T15:17:41.782Z,98713.66
2022-11-19T15:20:08.152Z,98710.34
2022-11-19T15:22:34.540Z,98710.63
2022-11-19T15:25:00.955Z,98702.69
2022-11-19T15:27:27.262Z,98704.38
2022-11-19T15:29:53.630Z,98709.69
2022-11-19T15:32:20.414Z,98697.03
2022-11-19T15:35:09.803Z,98705.09
2022-11-19T15:37:33.307Z,98717.94
2022-11-19T15:39:59.842Z,98704.31
2022-11-19T15:42:26.490Z,98712.50
2022-11-19T15:44:53.451Z,98707.66
2022-11-19T15:47:19.878Z,98703.44
2022-11-19T15:49:46.610Z,98713.09
2022-11-19T15:52:17.550Z,98721.44
2022-11-19T15:54:44.243Z,98708.88
2022-11-19T15:57:10.688Z,98702.59
2022-11-19T15:59:37.116Z,98700.09
2022-11-19T16:02:03.688Z,98703.41
2022-11-19T16:04:30.386Z,98712.16
2022-11-19T16:06:56.889Z,98707.97
2022-11-19T16:09:23.603Z,98715.50
2022-11-19T16:11:50.047Z,98706.97
2022-11-19T16:14:16.547Z,98703.72
2022-11-19T16:16:43.006Z,98692.28
2022-11-19T16:19:09.606Z,98691.31
2022-11-19T16:21:36.031Z,98687.44
2022-11-19T16:24:02.585Z,98699.50
2022-11-19T16:26:28.978Z,98689.91
2022-11-19T16:28:55.450Z,98700.25
2022-11-19T16:31:22.094Z,98702.50
2022-11-19T16:33:48.981Z,98712.38
2022-11-19T16:36:15.659Z,98706.88
2022-11-19T16:38:42.335Z,98711.41
2022-11-19T16:41:08.809Z,98710.88
2022-11-19T16:43:36.183Z,98720.78
2022-11-19T16:46:02.951Z,98721.31
2022-11-19T16:48:29.406Z,98717.78
2022-11-19T16:50:56.027Z,98717.75
2022-11-19T16:53:22.834Z,98725.75
2022-11-19T16:55:49.604Z,98725.59
2022-11-19T16:58:16.442Z,98730.56
2022-11-19T17:00:43.328Z,98727.97
2022-11-19T17:03:09.814Z,98739.00
2022-11-19T17:05:36.308Z,98735.44
2022-11-19T17:08:03.036Z,98735.09
2022-11-19T17:10:29.624Z,98741.19
2022-11-19T17:12:56.188Z,98739.84
2022-11-19T17:15:22.795Z,98746.66
2022-11-19T17:17:49.542Z,98748.38
2022-11-19T17:20:16.321Z,98743.66
2022-11-19T17:22:43.001Z,98742.50
2022-11-19T17:25:09.351Z,98736.53
2022-11-19T17:27:35.837Z,98746.81
2022-11-19T17:30:02.572Z,98744.50
2022-11-19T17:32:29.156Z,98748.22
2022-11-19T17:34:56.029Z,98738.47
2022-11-19T17:37:22.424Z,98743.25
2022-11-19T17:39:49.223Z,98731.78
2022-11-19T17:42:16.119Z,98732.06
2022-11-19T17:44:43.591Z,98722.94
2022-11-19T17:47:21.288Z,98715.81
2022-11-19T17:49:48.947Z,98717.94
2022-11-19T17:52:15.735Z,98721.25
2022-11-19T17:54:42.201Z,98723.09
2022-11-19T17:57:09.819Z,98711.69
2022-11-19T17:59:36.382Z,98710.00
2022-11-19T18:02:02.861Z,98714.16
2022-11-19T18:04:29.401Z,98708.91
2022-11-19T18:06:56.169Z,98717.66
2022-11-19T18:09:23.387Z,98716.72
2022-11-19T18:11:51.041Z,98709.59
2022-11-19T18:14:17.936Z,98708.56
2022-11-19T18:16:44.330Z,98712.06
2022-11-19T18:19:11.443Z,98711.75
2022-11-19T18:21:37.927Z,98714.13
2022-11-19T18:24:04.729Z,98706.59
2022-11-19T18:26:31.239Z,98697.22
2022-11-19T18:28:57.634Z,98694.44
2022-11-19T18:31:24.299Z,98696.28
2022-11-19T18:33:53.859Z,98693.63
2022-11-19T18:36:20.732Z,98688.25
2022-11-19T18:38:47.581Z,98697.50
2022-11-19T18:41:14.413Z,98694.25
2022-11-19T18:43:41.535Z,98705.91
2022-11-19T18:46:09.199Z,98699.50
2022-11-19T18:48:36.113Z,98693.19
2022-11-19T18:51:02.717Z,98694.56
2022-11-19T18:53:29.498Z,98692.19
2022-11-19T18:55:56.328Z,98693.09
2022-11-19T18:58:22.729Z,98688.44
2022-11-19T19:00:50.384Z,98695.44
2022-11-19T19:03:17.258Z,98695.34
2022-11-19T19:05:44.943Z,98697.22
2022-11-19T19:08:11.554Z,98683.81
2022-11-19T19:10:39.458Z,98703.63
2022-11-19T19:13:07.136Z,98705.34
2022-11-19T19:15:33.987Z,98715.28
2022-11-19T19:18:06.457Z,98711.69
2022-11-19T19:20:34.127Z,98702.75
2022-11-19T19:23:00.614Z,98699.25
2022-11-19T19:25:29.527Z,98700.25
2022-11-19T19:27:55.953Z,98692.19
2022-11-19T19:30:22.782Z,98692.09
2022-11-19T19:32:50.359Z,98695.78
2022-11-19T19:35:17.700Z,98691.25
2022-11-19T19:37:44.691Z,98692.28
2022-11-19T19:40:11.127Z,98693.47
2022-11-19T19:42:41.205Z,98695.56
2022-11-19T19:45:08.320Z,98682.25
2022-11-19T19:47:36.539Z,98693.00
2022-11-19T19:50:03.219Z,98698.03
2022-11-19T19:52:29.918Z,98703.69
2022-11-19T19:54:57.575Z,98702.75
2022-11-19T19:57:24.739Z,98698.19
2022-11-19T19:59:51.718Z,98694.72
2022-11-19T20:02:18.293Z,98693.25
2022-11-19T20:04:45.980Z,98709.09
2022-11-19T20:07:13.128Z,98690.44
2022-11-19T20:09:40.134Z,98697.44
2022-11-19T20:12:06.876Z,98709.72
2022-11-19T20:14:33.680Z,98715.97
2022-11-19T20:17:00.696Z,98717.94
2022-11-19T20:19:27.513Z,98714.69
2022-11-19T20:21:54.342Z,98725.28
2022-11-19T20:24:20.822Z,98714.75
2022-11-19T20:26:47.721Z,98713.03
2022-11-19T20:29:14.777Z,98713.44
2022-11-19T20:31:41.847Z,98704.34
2022-11-19T20:34:08.756Z,98690.72
2022-11-19T20:36:35.625Z,98688.53
2022-11-19T20:39:02.423Z,98691.25
2022-11-19T20:41:29.478Z,98694.75
2022-11-19T20:43:56.223Z,98690.81
2022-11-19T20:46:23.060Z,98700.94
2022-11-19T20:48:50.214Z,98709.63
2022-11-19T20:51:17.116Z,98716.47
2022-11-19T20:53:43.577Z,98716.03
2022-11-19T20:56:10.893Z,98719.88
2022-11-19T20:58:37.645Z,98717.97
2022-11-19T21:01:04.131Z,98710.75
2022-11-19T21:03:31.023Z,98706.63
2022-11-19T21:05:57.749Z,98707.44
2022-11-19T21:08:24.242Z,98706.47
2022-11-19T21:10:51.046Z,98698.59
2022-11-19T21:13:18.016Z,98694.44
2022-11-19T21:15:44.452Z,98697.13
2022-11-19T21:18:11.081Z,98693.25
2022-11-19T21:20:37.978Z,98695.19
2022-11-19T21:23:04.754Z,98698.13
2022-11-19T21:25:31.419Z,98701.06
2022-11-19T21:27:57.927Z,98695.88
2022-11-19T21:30:24.759Z,98684.00
2022-11-19T21:32:52.212Z,98686.16
2022-11-19T21:35:18.692Z,98673.69
2022-11-19T21:37:45.135Z,98676.38
2022-11-19T21:40:11.889Z,98685.72
2022-11-19T21:42:38.742Z,98694.47
2022-11-19T21:45:06.857Z,98694.31
2022-11-19T21:47:33.457Z,98695.13
2022-11-19T21:50:00.076Z,98696.44
2022-11-19T21:52:26.476Z,98685.78
2022-11-19T21:54:52.877Z,98694.91
2022-11-19T21:57:19.286Z,98702.38
2022-11-19T21:59:45.785Z,98699.38
2022-11-19T22:02:12.144Z,98700.84
2022-11-19T22:04:38.584Z,98706.66
2022-11-19T22:07:05.160Z,98697.59
2022-11-19T22:09:31.799Z,98688.00
2022-11-19T22:11:58.183Z,98681.94
2022-11-19T22:14:24.555Z,98688.75
2022-11-19T22:16:50.895Z,98682.31
2022-11-19T22:19:17.445Z,98677.09
2022-11-19T22:21:43.926Z,98677.19
2022-11-19T22:24:10.290Z,98686.09
2022-11-19T22:26:36.599Z,98678.94
2022-11-19T22:29:03.017Z,98680.91
2022-11-19T22:31:29.427Z,98676.47
2022-11-19T22:33:55.796Z,98675.94
2022-11-19T22:36:22.141Z,98680.16
2022-11-19T22:38:48.499Z,98678.31
2022-11-19T22:41:14.921Z,98675.69
2022-11-19T22:43:41.330Z,98678.34
2022-11-19T22:46:07.691Z,98684.94
2022-11-19T22:48:34.356Z,98686.44
2022-11-19T22:51:00.825Z,98678.66
2022-11-19T22:53:27.174Z,98678.94
2022-11-19T22:55:53.605Z,98684.00
2022-11-19T22:58:20.483Z,98683.09
2022-11-19T23:00:46.997Z,98683.50
2022-11-19T23:03:13.510Z,98688.34
2022-11-19T23:05:39.834Z,98673.19
2022-11-19T23:08:07.363Z,98670.38
2022-11-19T23:10:33.741Z,98665.41
2022-11-19T23:13:00.254Z,98660.41
2022-11-19T23:15:26.848Z,98662.34
2022-11-19T23:17:53.224Z,98672.84
2022-11-19T23:20:19.579Z,98674.47
2022-11-19T23:22:46.094Z,98676.34
2022-11-19T23:25:12.610Z,98672.44
2022-11-19T23:27:38.984Z,98672.25
2022-11-19T23:30:05.352Z,98669.66
2022-11-19T23:32:31.794Z,98668.38
2022-11-19T23:34:58.197Z,98663.59
2022-11-19T23:37:24.722Z,98676.59
2022-11-19T23:39:51.326Z,98670.72
2022-11-19T23:42:17.703Z,98657.31
2022-11-19T23:44:44.141Z,98655.63
2022-11-19T23:47:10.564Z,98646.63
2022-11-19T23:49:36.950Z,98640.34
2022-11-19T23:52:03.579Z,98639.72
2022-11-19T23:54:29.930Z,98637.00
2022-11-19T23:56:56.351Z,98632.03
2022-11-19T23:59:25.657Z,98618.81
